Time;durP1;ratioP1;P1;durP2;ratioP2;P2;SDS_P1;SDS_P2;PMS_P1;PMS_P2;Temp;Humidity;BMP_temperature;BMP_pressure;BME280_temperature;BME280_humidity;BME280_pressure;Samples;Min_cycle;Max_cycle;Signal;HPM_P1;HPM_P2
2021/09/01 00:01:03;;;;;;;23.40;15.90;;;17.30;99.90;;;;;;5003495;28;20445;-62
2021/09/01 00:03:29;;;;;;;20.00;15.43;;;17.30;99.90;;;;;;5004377;28;20243;-61
2021/09/01 00:05:54;;;;;;;23.83;16.97;;;17.20;99.90;;;;;;5002254;28;20452;-61
2021/09/01 00:08:20;;;;;;;22.27;16.77;;;17.20;99.90;;;;;;4999889;28;20205;-61
2021/09/01 00:10:45;;;;;;;20.20;15.13;;;17.00;99.90;;;;;;5002170;28;20197;-61
2021/09/01 00:13:11;;;;;;;20.60;14.47;;;17.20;99.90;;;;;;5004778;28;20193;-61
2021/09/01 00:15:37;;;;;;;26.03;18.20;;;17.20;99.90;;;;;;5005259;28;20659;-61
2021/09/01 00:18:03;;;;;;;23.10;16.77;;;17.30;99.90;;;;;;5001813;28;20483;-61
2021/09/01 00:20:28;;;;;;;21.50;16.73;;;17.20;99.90;;;;;;5002893;28;20197;-61
2021/09/01 00:22:54;;;;;;;23.00;15.83;;;17.20;99.90;;;;;;5001567;28;20239;-61
2021/09/01 00:25:21;;;;;;;21.00;15.77;;;17.20;99.90;;;;;;5003798;28;20237;-62
2021/09/01 00:27:47;;;;;;;24.70;16.53;;;17.10;99.90;;;;;;5004755;28;20867;-61
2021/09/01 00:30:12;;;;;;;20.27;14.73;;;17.10;99.90;;;;;;5002781;28;20705;-61
2021/09/01 00:32:38;;;;;;;24.03;16.60;;;17.20;99.90;;;;;;5003421;28;20225;-61
2021/09/01 00:35:05;;;;;;;23.77;16.67;;;17.30;99.90;;;;;;5002204;28;20461;-61
2021/09/01 00:37:31;;;;;;;21.13;14.13;;;17.30;99.90;;;;;;5001358;28;20221;-61
2021/09/01 00:39:56;;;;;;;21.53;15.47;;;17.10;99.90;;;;;;5003420;28;20472;-62
2021/09/01 00:42:22;;;;;;;23.00;15.90;;;17.10;99.90;;;;;;5002626;28;20440;-61
2021/09/01 00:44:48;;;;;;;21.23;15.50;;;17.10;99.90;;;;;;5003036;28;20189;-61
2021/09/01 00:47:17;;;;;;;24.20;15.40;;;17.20;99.90;;;;;;5004704;28;20178;-61
2021/09/01 00:49:42;;;;;;;22.67;15.47;;;16.90;99.90;;;;;;5004550;28;20181;-61
2021/09/01 00:52:08;;;;;;;25.03;15.33;;;16.80;99.90;;;;;;5004105;28;20468;-61
2021/09/01 00:54:34;;;;;;;22.13;16.00;;;16.80;99.90;;;;;;5003024;28;20185;-61
2021/09/01 00:57:03;;;;;;;19.87;14.63;;;16.80;99.90;;;;;;4999797;28;20228;-62
2021/09/01 00:59:34;;;;;;;19.73;15.00;;;16.90;99.90;;;;;;5002949;28;20243;-61
2021/09/01 01:02:01;;;;;;;21.77;15.10;;;16.90;99.90;;;;;;5001800;28;20447;-61
2021/09/01 01:04:28;;;;;;;22.50;15.60;;;16.70;99.90;;;;;;5000173;28;20808;-61
2021/09/01 01:07:13;;;;;;;25.80;16.10;;;16.70;99.90;;;;;;4999673;28;21062;-61
2021/09/01 01:09:42;;;;;;;19.30;14.73;;;16.70;99.90;;;;;;5001042;28;20993;-61
2021/09/01 01:12:14;;;;;;;22.00;15.00;;;16.60;99.90;;;;;;5002590;28;20443;-61
2021/09/01 01:14:45;;;;;;;19.17;14.77;;;16.80;99.90;;;;;;5001640;28;20458;-61
2021/09/01 01:17:13;;;;;;;22.60;15.07;;;16.60;99.90;;;;;;5003591;28;20527;-61
2021/09/01 01:19:46;;;;;;;26.53;16.10;;;16.50;99.90;;;;;;5000557;28;20468;-60
2021/09/01 01:22:14;;;;;;;24.37;14.40;;;16.70;99.90;;;;;;5002014;28;20531;-61
2021/09/01 01:24:49;;;;;;;22.53;14.50;;;16.60;99.90;;;;;;5001897;28;20946;-61
2021/09/01 01:27:29;;;;;;;21.27;15.13;;;16.60;99.90;;;;;;5004194;28;20510;-61
2021/09/01 01:29:57;;;;;;;22.80;14.80;;;16.50;99.90;;;;;;5001009;28;20431;-61
2021/09/01 01:32:24;;;;;;;25.97;15.57;;;16.50;99.90;;;;;;5004559;28;20523;-61
2021/09/01 01:34:49;;;;;;;23.43;15.40;;;16.50;99.90;;;;;;4999312;28;20452;-60
2021/09/01 01:37:15;;;;;;;27.53;16.20;;;16.50;99.90;;;;;;5001590;28;20493;-61
2021/09/01 01:39:40;;;;;;;24.10;14.67;;;16.70;99.90;;;;;;5000813;28;20214;-60
2021/09/01 01:42:06;;;;;;;21.73;15.47;;;16.70;99.90;;;;;;5000928;28;20186;-62
2021/09/01 01:44:32;;;;;;;20.80;14.70;;;16.50;99.90;;;;;;4999510;28;20181;-62
2021/09/01 01:46:57;;;;;;;24.33;14.97;;;16.50;99.90;;;;;;5000349;28;20210;-61
2021/09/01 01:49:23;;;;;;;20.37;14.40;;;16.40;99.90;;;;;;5001628;28;20259;-61
2021/09/01 01:51:50;;;;;;;21.50;14.53;;;16.50;99.90;;;;;;5001258;28;20447;-61
2021/09/01 01:54:16;;;;;;;23.60;14.80;;;16.30;99.90;;;;;;5001035;28;20180;-61
2021/09/01 01:56:42;;;;;;;23.17;15.37;;;16.40;99.90;;;;;;5000851;28;20472;-61
2021/09/01 01:59:08;;;;;;;22.17;14.10;;;16.30;99.90;;;;;;5004438;28;20478;-61
2021/09/01 02:01:34;;;;;;;19.70;14.50;;;16.50;99.90;;;;;;5001028;28;20185;-61
2021/09/01 02:03:59;;;;;;;16.97;12.83;;;16.60;99.90;;;;;;5002343;28;20496;-61
2021/09/01 02:06:27;;;;;;;20.17;13.53;;;16.70;99.90;;;;;;5003878;28;20702;-61
2021/09/01 02:08:52;;;;;;;19.33;13.23;;;16.70;99.90;;;;;;5002139;28;20239;-62
2021/09/01 02:11:18;;;;;;;17.60;11.27;;;16.90;99.90;;;;;;5000127;28;20457;-61
2021/09/01 02:13:44;;;;;;;15.63;10.70;;;16.90;99.90;;;;;;5001758;28;21470;-61
2021/09/01 02:16:09;;;;;;;18.10;12.77;;;16.80;99.90;;;;;;5002660;28;20638;-62
2021/09/01 02:18:35;;;;;;;17.70;11.37;;;16.80;99.90;;;;;;5003622;28;20236;-61
2021/09/01 02:21:00;;;;;;;20.03;12.90;;;16.80;99.90;;;;;;4998817;28;20186;-61
2021/09/01 02:23:26;;;;;;;13.70;10.93;;;16.80;99.90;;;;;;4998163;28;20297;-61
2021/09/01 02:25:52;;;;;;;13.43;10.90;;;16.80;99.90;;;;;;5002428;28;20583;-61
2021/09/01 02:28:17;;;;;;;15.50;10.93;;;16.80;99.90;;;;;;4999663;28;20189;-61
2021/09/01 02:30:43;;;;;;;15.00;10.67;;;16.70;99.90;;;;;;4997157;28;20193;-61
2021/09/01 02:33:09;;;;;;;19.57;11.47;;;16.70;99.90;;;;;;5002064;28;20432;-61
2021/09/01 02:35:34;;;;;;;14.77;11.40;;;16.60;99.90;;;;;;5001188;28;20704;-61
2021/09/01 02:38:00;;;;;;;17.53;10.73;;;16.60;99.90;;;;;;5001770;28;20542;-61
2021/09/01 02:40:25;;;;;;;15.70;10.77;;;16.60;99.90;;;;;;4999992;28;20217;-61
2021/09/01 02:42:51;;;;;;;15.27;10.37;;;16.40;99.90;;;;;;5001135;28;20185;-65
2021/09/01 02:45:17;;;;;;;16.37;11.13;;;16.40;99.90;;;;;;5003407;28;20760;-65
2021/09/01 02:47:47;;;;;;;13.90;11.53;;;16.50;99.90;;;;;;4998059;28;20553;-65
2021/09/01 02:50:14;;;;;;;15.03;12.00;;;16.50;99.90;;;;;;5000437;28;20439;-65
2021/09/01 02:52:44;;;;;;;16.70;11.80;;;16.50;99.90;;;;;;5001937;28;20431;-65
2021/09/01 02:55:10;;;;;;;17.50;12.53;;;16.50;99.90;;;;;;5000950;28;20833;-65
2021/09/01 02:57:36;;;;;;;15.37;11.97;;;16.50;99.90;;;;;;5001677;28;20503;-65
2021/09/01 03:00:04;;;;;;;14.30;10.70;;;16.50;99.90;;;;;;4998844;28;20515;-66
2021/09/01 03:02:30;;;;;;;13.50;10.57;;;16.40;99.90;;;;;;5001908;28;20185;-66
2021/09/01 03:04:56;;;;;;;16.00;11.20;;;16.30;99.90;;;;;;5003722;28;20872;-65
2021/09/01 03:07:21;;;;;;;15.63;11.87;;;16.20;99.90;;;;;;4996925;28;20182;-65
2021/09/01 03:09:47;;;;;;;14.03;11.30;;;16.30;99.90;;;;;;5002094;28;20240;-65
2021/09/01 03:12:12;;;;;;;15.80;12.03;;;16.30;99.90;;;;;;5001818;28;20216;-65
2021/09/01 03:14:38;;;;;;;16.73;12.07;;;16.20;99.90;;;;;;5000970;28;20185;-65
2021/09/01 03:17:04;;;;;;;15.73;11.03;;;16.20;99.90;;;;;;5004992;28;20219;-65
2021/09/01 03:19:29;;;;;;;15.30;11.53;;;16.20;99.90;;;;;;5000705;28;20291;-65
2021/09/01 03:21:55;;;;;;;15.37;11.20;;;16.30;99.90;;;;;;5006186;28;20280;-66
2021/09/01 03:24:21;;;;;;;18.50;12.90;;;16.20;99.90;;;;;;5005392;28;20741;-66
2021/09/01 03:26:46;;;;;;;15.57;11.60;;;16.10;99.90;;;;;;5000709;28;20225;-65
2021/09/01 03:29:12;;;;;;;16.17;11.57;;;16.00;99.90;;;;;;5004341;28;20192;-65
2021/09/01 03:31:38;;;;;;;17.03;11.50;;;16.10;99.90;;;;;;5005350;28;20227;-65
2021/09/01 03:34:03;;;;;;;13.90;10.50;;;16.00;99.90;;;;;;4997045;28;20249;-66
2021/09/01 03:36:29;;;;;;;15.87;11.47;;;16.10;99.90;;;;;;5003955;28;20259;-66
2021/09/01 03:38:54;;;;;;;12.53;10.77;;;16.10;99.90;;;;;;5002134;28;20328;-66
2021/09/01 03:41:20;;;;;;;17.63;11.70;;;16.10;99.90;;;;;;5005537;28;20270;-66
2021/09/01 03:43:46;;;;;;;13.80;10.97;;;16.00;99.90;;;;;;5004887;28;20720;-66
2021/09/01 03:46:11;;;;;;;15.60;11.23;;;16.00;99.90;;;;;;5004234;28;20217;-65
2021/09/01 03:48:37;;;;;;;15.77;12.53;;;16.00;99.90;;;;;;5004494;28;20415;-66
2021/09/01 03:51:03;;;;;;;18.20;12.27;;;16.10;99.90;;;;;;5004278;28;20202;-66
2021/09/01 03:53:28;;;;;;;15.53;11.63;;;16.10;99.90;;;;;;5002870;28;20207;-66
2021/09/01 03:55:54;;;;;;;17.87;10.90;;;16.00;99.90;;;;;;5003098;28;20221;-66
2021/09/01 03:58:19;;;;;;;16.57;11.03;;;15.90;99.90;;;;;;5003647;28;20208;-66
2021/09/01 04:00:45;;;;;;;17.50;11.10;;;15.90;99.90;;;;;;5004031;28;20636;-65
2021/09/01 04:03:11;;;;;;;22.10;11.30;;;16.00;99.90;;;;;;5004368;28;20540;-65
2021/09/01 04:05:36;;;;;;;16.10;11.37;;;16.00;99.90;;;;;;5004986;28;20219;-65
2021/09/01 04:08:02;;;;;;;19.43;13.43;;;15.90;99.90;;;;;;5004203;28;20263;-66
2021/09/01 04:10:28;;;;;;;18.03;12.07;;;15.80;99.90;;;;;;5003552;28;20201;-66
2021/09/01 04:12:54;;;;;;;17.00;12.20;;;15.60;99.90;;;;;;5003792;28;20497;-66
2021/09/01 04:15:20;;;;;;;20.07;12.70;;;15.70;99.90;;;;;;5004215;28;20216;-66
2021/09/01 04:17:45;;;;;;;17.43;11.70;;;15.80;99.90;;;;;;5003318;28;20671;-66
2021/09/01 04:20:11;;;;;;;17.20;12.60;;;15.80;99.90;;;;;;5003719;28;20225;-65
2021/09/01 04:22:37;;;;;;;19.90;12.90;;;15.80;99.90;;;;;;5001977;28;20288;-66
2021/09/01 04:25:04;;;;;;;16.70;12.33;;;15.90;99.90;;;;;;5002090;28;20213;-66
2021/09/01 04:27:30;;;;;;;17.33;11.77;;;15.90;99.90;;;;;;5003699;28;20181;-66
2021/09/01 04:29:55;;;;;;;13.73;10.63;;;15.80;99.90;;;;;;4998658;28;20440;-66
2021/09/01 04:32:21;;;;;;;18.80;11.53;;;15.90;99.90;;;;;;5002501;28;20201;-66
2021/09/01 04:34:47;;;;;;;14.47;10.40;;;15.80;99.90;;;;;;4999894;28;20562;-65
2021/09/01 04:37:13;;;;;;;15.77;10.90;;;15.70;99.90;;;;;;5005430;28;20517;-65
2021/09/01 04:39:39;;;;;;;15.90;10.70;;;15.80;99.90;;;;;;5003082;28;20482;-65
2021/09/01 04:42:04;;;;;;;12.50;10.70;;;15.80;99.90;;;;;;5003162;28;20280;-65
2021/09/01 04:44:31;;;;;;;14.63;10.57;;;15.70;99.90;;;;;;5004031;28;20194;-66
2021/09/01 04:46:56;;;;;;;15.90;10.13;;;15.70;99.90;;;;;;5001317;28;20205;-66
2021/09/01 04:49:22;;;;;;;18.03;11.10;;;15.80;99.90;;;;;;5002479;28;20817;-65
2021/09/01 04:51:47;;;;;;;13.10;9.63;;;15.70;99.90;;;;;;5006942;28;20232;-66
2021/09/01 04:54:13;;;;;;;15.77;10.50;;;15.70;99.90;;;;;;5003538;28;20197;-65
2021/09/01 04:56:39;;;;;;;16.30;10.80;;;15.80;99.90;;;;;;5003654;28;20633;-66
2021/09/01 04:59:04;;;;;;;14.97;10.90;;;15.60;99.90;;;;;;5004079;28;20213;-66
2021/09/01 05:01:30;;;;;;;13.40;10.50;;;15.70;99.90;;;;;;5004343;28;20672;-66
2021/09/01 05:03:56;;;;;;;13.50;10.30;;;15.60;99.90;;;;;;5003188;28;20305;-66
2021/09/01 05:06:21;;;;;;;13.70;10.20;;;15.70;99.90;;;;;;5003064;28;20339;-66
2021/09/01 05:08:47;;;;;;;14.23;9.90;;;15.70;99.90;;;;;;4999515;28;20224;-66
2021/09/01 05:11:13;;;;;;;14.40;10.87;;;15.60;99.90;;;;;;5002237;28;20196;-66
2021/09/01 05:13:40;;;;;;;13.60;10.70;;;15.60;99.90;;;;;;5002704;28;20224;-66
2021/09/01 05:16:05;;;;;;;14.90;10.97;;;15.70;99.90;;;;;;4999886;28;20465;-66
2021/09/01 05:18:31;;;;;;;17.50;11.90;;;15.70;99.90;;;;;;5003764;28;20478;-66
2021/09/01 05:20:59;;;;;;;14.23;11.37;;;15.70;99.90;;;;;;4999612;28;20247;-66
2021/09/01 05:23:31;;;;;;;14.90;11.20;;;15.70;99.90;;;;;;5001472;28;20196;-66
2021/09/01 05:25:59;;;;;;;17.47;11.67;;;15.50;99.90;;;;;;5001250;28;20452;-66
2021/09/01 05:28:30;;;;;;;18.97;13.10;;;15.50;99.90;;;;;;5000845;28;20523;-66
2021/09/01 05:30:58;;;;;;;17.03;12.03;;;15.50;99.90;;;;;;5000451;28;20440;-66
2021/09/01 05:33:27;;;;;;;18.67;12.30;;;15.50;99.90;;;;;;5000321;28;20475;-66
2021/09/01 05:35:53;;;;;;;16.90;12.37;;;15.60;99.90;;;;;;4999473;28;20456;-66
2021/09/01 05:38:19;;;;;;;16.33;11.50;;;15.60;99.90;;;;;;5000706;28;20445;-66
2021/09/01 05:40:50;;;;;;;15.10;11.10;;;15.80;99.90;;;;;;4999609;28;20189;-66
2021/09/01 05:43:17;;;;;;;15.37;12.20;;;15.80;99.90;;;;;;5002845;28;20540;-66
2021/09/01 05:45:48;;;;;;;18.23;13.43;;;15.80;99.90;;;;;;4998783;28;20538;-66
2021/09/01 05:48:14;;;;;;;16.77;11.63;;;15.70;99.90;;;;;;4998002;28;20567;-66
2021/09/01 05:50:45;;;;;;;16.00;12.10;;;15.80;99.90;;;;;;5000791;28;20444;-66
2021/09/01 05:53:11;;;;;;;14.13;10.67;;;15.80;99.90;;;;;;5001651;28;20440;-67
2021/09/01 05:55:41;;;;;;;18.33;12.03;;;15.90;99.90;;;;;;5001944;28;20456;-67
2021/09/01 05:58:12;;;;;;;16.90;12.70;;;15.90;99.90;;;;;;5002259;28;20615;-67
2021/09/01 06:00:40;;;;;;;23.80;12.83;;;16.00;99.90;;;;;;5001800;28;20440;-66
2021/09/01 06:03:12;;;;;;;18.70;13.33;;;15.90;99.90;;;;;;5000968;28;20922;-66
2021/09/01 06:05:38;;;;;;;18.17;12.33;;;15.90;99.90;;;;;;5000780;28;20455;-65
2021/09/01 06:08:07;;;;;;;16.80;12.37;;;16.00;99.90;;;;;;4999652;28;20435;-65
2021/09/01 06:10:34;;;;;;;15.60;12.40;;;16.00;99.90;;;;;;4997606;28;20445;-65
2021/09/01 06:13:05;;;;;;;21.00;13.60;;;16.00;99.90;;;;;;4999593;28;20439;-65
2021/09/01 06:15:32;;;;;;;17.47;12.40;;;16.00;99.90;;;;;;4998633;28;20471;-66
2021/09/01 06:17:59;;;;;;;15.70;11.67;;;16.10;99.90;;;;;;4997966;28;20527;-65
2021/09/01 06:20:29;;;;;;;20.00;12.97;;;16.00;99.90;;;;;;5003409;28;20545;-65
2021/09/01 06:22:55;;;;;;;20.07;12.07;;;16.10;99.90;;;;;;4999277;28;20552;-66
2021/09/01 06:25:21;;;;;;;20.60;13.43;;;16.10;99.90;;;;;;5001860;28;20452;-66
2021/09/01 06:27:47;;;;;;;20.63;12.83;;;16.10;99.90;;;;;;4999003;28;20445;-66
2021/09/01 06:30:13;;;;;;;25.20;12.70;;;16.10;99.90;;;;;;5000055;28;20247;-66
2021/09/01 06:32:38;;;;;;;18.40;12.47;;;16.20;99.90;;;;;;5004179;28;20197;-65
2021/09/01 06:35:05;;;;;;;17.67;12.00;;;16.10;99.90;;;;;;5000197;28;21048;-66
2021/09/01 06:37:32;;;;;;;20.37;15.00;;;16.00;99.90;;;;;;5001140;28;20641;-67
2021/09/01 06:39:57;;;;;;;20.90;13.50;;;16.10;99.90;;;;;;4995550;28;20846;-66
2021/09/01 06:42:23;;;;;;;25.63;14.90;;;16.00;99.90;;;;;;4999303;28;20442;-66
2021/09/01 06:44:49;;;;;;;22.33;15.53;;;16.10;99.90;;;;;;5000570;28;20198;-66
2021/09/01 06:47:15;;;;;;;23.37;14.60;;;16.10;99.90;;;;;;5000348;28;20666;-66
2021/09/01 06:49:42;;;;;;;19.10;14.47;;;16.10;99.90;;;;;;4999624;28;20200;-65
2021/09/01 06:52:07;;;;;;;23.73;14.27;;;16.20;99.90;;;;;;5000554;28;20527;-65
2021/09/01 06:54:33;;;;;;;21.20;14.13;;;16.30;99.90;;;;;;4998886;28;20445;-67
2021/09/01 06:56:59;;;;;;;18.97;13.70;;;16.30;99.90;;;;;;5001220;28;20496;-67
2021/09/01 06:59:24;;;;;;;37.07;14.80;;;16.20;99.90;;;;;;4998422;28;20217;-65
2021/09/01 07:01:50;;;;;;;16.90;12.53;;;16.30;99.90;;;;;;4998147;28;20195;-67
2021/09/01 07:04:16;;;;;;;16.90;12.37;;;16.20;99.90;;;;;;4999408;28;20193;-66
2021/09/01 07:06:41;;;;;;;17.60;12.80;;;16.30;99.90;;;;;;4995661;28;20287;-67
2021/09/01 07:09:07;;;;;;;17.87;13.70;;;16.30;99.90;;;;;;4991906;28;20575;-67
2021/09/01 07:11:33;;;;;;;20.83;13.70;;;16.30;99.90;;;;;;4996833;28;20236;-66
2021/09/01 07:13:58;;;;;;;15.23;12.53;;;16.40;99.90;;;;;;4998272;28;20284;-66
2021/09/01 07:16:25;;;;;;;17.70;13.47;;;16.40;99.90;;;;;;5000848;28;20212;-67
2021/09/01 07:18:50;;;;;;;17.40;11.90;;;16.40;99.90;;;;;;4995474;28;20595;-66
2021/09/01 07:21:16;;;;;;;18.27;13.13;;;16.50;99.90;;;;;;5003046;28;20443;-67
2021/09/01 07:23:42;;;;;;;16.43;12.30;;;16.60;99.90;;;;;;4998191;28;20287;-66
2021/09/01 07:26:12;;;;;;;15.30;12.17;;;16.60;99.90;;;;;;5001549;28;20201;-66
2021/09/01 07:28:38;;;;;;;16.00;12.10;;;16.60;99.90;;;;;;5001383;28;20735;-66
2021/09/01 07:31:08;;;;;;;18.07;12.10;;;16.60;99.90;;;;;;5000498;28;20783;-67
2021/09/01 07:33:34;;;;;;;16.90;12.23;;;16.60;99.90;;;;;;5002444;28;20440;-66
2021/09/01 07:36:00;;;;;;;19.17;12.47;;;16.60;99.90;;;;;;5000649;28;20454;-66
2021/09/01 07:38:26;;;;;;;16.70;12.27;;;16.50;99.90;;;;;;4997982;28;20798;-65
2021/09/01 07:40:52;;;;;;;14.77;11.30;;;16.60;99.90;;;;;;4999451;28;20452;-66
2021/09/01 07:43:19;;;;;;;16.73;12.30;;;16.60;99.90;;;;;;5000297;28;20713;-66
2021/09/01 07:45:45;;;;;;;15.13;11.77;;;16.60;99.90;;;;;;4998362;28;20518;-66
2021/09/01 07:48:15;;;;;;;14.90;11.17;;;16.70;99.90;;;;;;4999345;28;20455;-66
2021/09/01 07:50:42;;;;;;;17.80;12.10;;;16.80;99.90;;;;;;5001269;28;20435;-66
2021/09/01 07:53:08;;;;;;;14.70;12.23;;;16.80;99.90;;;;;;4998131;28;20442;-66
2021/09/01 07:55:33;;;;;;;13.27;11.57;;;16.80;99.90;;;;;;5003312;28;20958;-66
2021/09/01 07:57:59;;;;;;;17.10;11.77;;;16.90;99.90;;;;;;4993424;28;20448;-66
2021/09/01 08:00:25;;;;;;;13.90;10.60;;;17.00;99.90;;;;;;4998281;28;20225;-66
2021/09/01 08:02:52;;;;;;;14.73;11.30;;;17.10;99.90;;;;;;5003208;28;20193;-66
2021/09/01 08:05:19;;;;;;;15.80;11.40;;;17.10;99.90;;;;;;5002348;28;20205;-66
2021/09/01 08:07:45;;;;;;;14.87;11.13;;;17.10;99.90;;;;;;5000120;28;20958;-66
2021/09/01 08:10:11;;;;;;;14.23;11.57;;;17.10;99.90;;;;;;5002484;28;20435;-66
2021/09/01 08:12:36;;;;;;;16.50;12.90;;;17.20;99.90;;;;;;5001770;28;20439;-66
2021/09/01 08:15:03;;;;;;;14.03;10.13;;;17.20;99.90;;;;;;5001591;28;20463;-66
2021/09/01 08:17:29;;;;;;;15.87;10.40;;;17.20;99.90;;;;;;5002914;28;20209;-66
2021/09/01 08:19:55;;;;;;;14.47;10.00;;;17.40;99.90;;;;;;5003579;28;20566;-66
2021/09/01 08:22:21;;;;;;;11.87;9.33;;;17.40;99.90;;;;;;5000711;28;20209;-66
2021/09/01 08:24:46;;;;;;;11.53;10.27;;;17.40;99.90;;;;;;4999310;28;20189;-66
2021/09/01 08:27:13;;;;;;;12.17;9.97;;;17.50;99.90;;;;;;5001898;28;20255;-66
2021/09/01 08:29:39;;;;;;;15.83;10.40;;;17.50;99.90;;;;;;5000997;28;20208;-66
2021/09/01 08:32:05;;;;;;;11.83;9.07;;;17.60;99.90;;;;;;4997720;28;20442;-65
2021/09/01 08:34:31;;;;;;;11.13;9.90;;;17.70;99.90;;;;;;5001822;28;22129;-66
2021/09/01 08:36:57;;;;;;;13.23;10.17;;;17.80;99.90;;;;;;5000864;28;20467;-66
2021/09/01 08:39:23;;;;;;;11.80;10.23;;;17.90;99.90;;;;;;5004409;28;20300;-66
2021/09/01 08:41:48;;;;;;;11.33;9.40;;;18.00;99.90;;;;;;4999791;28;20299;-66
2021/09/01 08:44:15;;;;;;;20.67;10.37;;;18.00;99.90;;;;;;4998855;28;20205;-66
2021/09/01 08:46:43;;;;;;;12.10;8.37;;;17.90;99.90;;;;;;5003003;28;20212;-66
2021/09/01 08:49:11;;;;;;;11.93;9.77;;;18.00;99.90;;;;;;4999973;28;20448;-66
2021/09/01 08:51:37;;;;;;;14.03;9.80;;;18.20;99.90;;;;;;5002457;28;20921;-66
2021/09/01 08:54:04;;;;;;;12.07;9.63;;;18.20;99.90;;;;;;5003334;28;20449;-66
2021/09/01 08:56:30;;;;;;;11.10;8.60;;;18.30;99.90;;;;;;5003954;28;20212;-66
2021/09/01 08:58:56;;;;;;;12.57;10.30;;;18.40;99.90;;;;;;5000063;28;20566;-65
2021/09/01 09:01:41;;;;;;;14.20;10.57;;;18.40;99.90;;;;;;5008335;28;21013;-66
2021/09/01 09:04:18;;;;;;;13.07;10.00;;;18.40;99.90;;;;;;4999631;28;20234;-66
2021/09/01 09:06:44;;;;;;;11.13;9.90;;;18.50;99.90;;;;;;5003740;28;20443;-66
2021/09/01 09:09:12;;;;;;;11.73;9.33;;;18.60;99.90;;;;;;5006656;28;20440;-66
2021/09/01 09:11:38;;;;;;;12.80;10.00;;;18.70;99.90;;;;;;5000163;28;20432;-66
2021/09/01 09:14:29;;;;;;;11.23;8.90;;;18.70;99.90;;;;;;5002853;28;20467;-66
2021/09/01 09:17:13;;;;;;;13.60;9.47;;;18.80;99.90;;;;;;5000949;28;20457;-66
2021/09/01 09:19:43;;;;;;;12.13;9.30;;;18.90;99.90;;;;;;5003802;28;20480;-66
2021/09/01 09:22:09;;;;;;;10.10;9.00;;;18.80;99.90;;;;;;4996581;28;20490;-66
2021/09/01 09:24:35;;;;;;;10.50;9.07;;;19.00;99.90;;;;;;5001803;28;20456;-66
2021/09/01 09:27:01;;;;;;;11.90;8.80;;;19.00;99.90;;;;;;5001993;28;20518;-66
2021/09/01 09:29:30;;;;;;;9.90;8.43;;;19.10;99.90;;;;;;5003215;28;20642;-66
2021/09/01 09:32:05;;;;;;;11.77;8.73;;;19.10;99.90;;;;;;5006336;28;20353;-66
2021/09/01 09:34:38;;;;;;;10.90;8.97;;;19.10;99.90;;;;;;5000095;28;20436;-66
2021/09/01 09:37:06;;;;;;;10.90;8.80;;;19.20;99.90;;;;;;5002455;28;20471;-65
2021/09/01 09:39:44;;;;;;;10.70;9.00;;;19.30;99.90;;;;;;5003222;28;20475;-65
2021/09/01 09:42:12;;;;;;;10.23;7.70;;;19.40;99.90;;;;;;4986190;28;20432;-63
2021/09/01 09:44:39;;;;;;;10.23;8.13;;;19.40;99.90;;;;;;5000302;28;20451;-66
2021/09/01 09:47:05;;;;;;;9.20;7.47;;;19.50;99.90;;;;;;5002374;28;20788;-66
2021/09/01 09:49:33;;;;;;;9.13;7.90;;;19.60;99.90;;;;;;4999328;28;20540;-65
2021/09/01 09:51:59;;;;;;;10.10;7.53;;;19.60;99.90;;;;;;4998693;28;20790;-64
2021/09/01 09:54:27;;;;;;;8.20;7.23;;;19.60;99.90;;;;;;4999229;28;20535;-64
2021/09/01 09:57:08;;;;;;;9.57;7.80;;;19.70;99.90;;;;;;5000847;28;20522;-62
2021/09/01 09:59:35;;;;;;;10.83;7.47;;;19.80;99.90;;;;;;5001215;28;20510;-62
2021/09/01 10:02:01;;;;;;;8.77;7.87;;;19.80;99.90;;;;;;5000662;28;20471;-62
2021/09/01 10:04:28;;;;;;;8.03;7.27;;;19.80;99.90;;;;;;5000049;28;20474;-62
2021/09/01 10:06:54;;;;;;;9.37;7.13;;;19.80;99.90;;;;;;5001618;28;20220;-62
2021/09/01 10:09:20;;;;;;;8.80;7.90;;;19.90;99.90;;;;;;5005464;28;20802;-62
2021/09/01 10:11:47;;;;;;;8.10;7.10;;;19.90;99.90;;;;;;5000135;28;20224;-62
2021/09/01 10:14:20;;;;;;;13.97;8.27;;;20.10;99.90;;;;;;5000953;28;20207;-62
2021/09/01 10:16:55;;;;;;;8.50;7.67;;;20.10;99.90;;;;;;5002527;28;20486;-64
2021/09/01 10:19:26;;;;;;;9.47;6.93;;;20.20;99.90;;;;;;5004664;28;20556;-61
2021/09/01 10:22:03;;;;;;;10.33;6.90;;;20.20;99.90;;;;;;4998688;28;20435;-61
2021/09/01 10:24:32;;;;;;;9.07;8.07;;;20.40;99.90;;;;;;4996634;28;20431;-61
2021/09/01 10:27:09;;;;;;;8.03;6.97;;;20.40;99.90;;;;;;4999948;28;21003;-62
2021/09/01 10:29:53;;;;;;;14.27;7.17;;;20.30;99.90;;;;;;4999572;28;20490;-62
2021/09/01 10:32:18;;;;;;;9.13;7.63;;;20.40;99.90;;;;;;4998468;28;20452;-62
2021/09/01 10:34:45;;;;;;;7.90;7.10;;;20.50;99.90;;;;;;5000835;28;20444;-64
2021/09/01 10:37:44;;;;;;;12.10;7.47;;;20.60;99.90;;;;;;5001313;28;20185;-63
2021/09/01 10:40:13;;;;;;;8.40;7.47;;;20.70;99.90;;;;;;5001124;28;20476;-63
2021/09/01 10:42:45;;;;;;;7.83;7.03;;;20.80;99.90;;;;;;5003294;28;20448;-64
2021/09/01 10:45:20;;;;;;;8.80;8.00;;;20.90;99.90;;;;;;5003371;28;20452;-62
2021/09/01 10:47:52;;;;;;;8.20;6.97;;;21.00;99.90;;;;;;5001384;28;20431;-63
2021/09/01 10:50:23;;;;;;;8.10;7.03;;;21.10;99.90;;;;;;5001234;28;20444;-64
2021/09/01 10:53:07;;;;;;;7.13;6.40;;;21.00;99.90;;;;;;4999178;28;20523;-62
2021/09/01 10:55:45;;;;;;;14.70;6.70;;;21.10;99.90;;;;;;5002567;28;20853;-62
2021/09/01 10:58:17;;;;;;;9.20;7.40;;;21.10;99.90;;;;;;4999650;28;20567;-62
2021/09/01 11:00:43;;;;;;;8.47;6.87;;;21.10;99.90;;;;;;5002628;28;20478;-62
2021/09/01 11:03:09;;;;;;;7.37;6.67;;;21.20;99.90;;;;;;5002214;28;20492;-62
2021/09/01 11:05:35;;;;;;;7.73;7.00;;;21.20;99.90;;;;;;5001045;28;20791;-62
2021/09/01 11:08:01;;;;;;;7.10;6.47;;;21.30;99.90;;;;;;5001696;28;20740;-62
2021/09/01 11:10:28;;;;;;;6.97;6.37;;;21.40;99.90;;;;;;4999940;28;20551;-62
2021/09/01 11:13:01;;;;;;;13.13;5.97;;;21.40;99.90;;;;;;4999258;28;20280;-62
2021/09/01 11:15:28;;;;;;;8.43;6.13;;;21.50;99.90;;;;;;4999706;28;20548;-63
2021/09/01 11:18:20;;;;;;;7.00;6.30;;;21.60;99.90;;;;;;4999546;28;20461;-63
2021/09/01 11:20:53;;;;;;;9.07;6.67;;;21.70;99.90;;;;;;4994873;28;20578;-63
2021/09/01 11:23:26;;;;;;;6.80;6.20;;;21.80;99.90;;;;;;5001747;28;20436;-63
2021/09/01 11:25:52;;;;;;;8.00;6.43;;;21.90;99.90;;;;;;5000189;28;20468;-63
2021/09/01 11:28:17;;;;;;;7.03;6.13;;;21.90;99.90;;;;;;4997345;28;20526;-63
2021/09/01 11:30:43;;;;;;;7.53;6.30;;;22.00;99.90;;;;;;5000362;28;20217;-63
2021/09/01 11:33:14;;;;;;;7.27;5.70;;;22.00;99.90;;;;;;4997063;28;20660;-63
2021/09/01 11:35:39;;;;;;;5.10;4.70;;;22.20;99.90;;;;;;4998693;28;20209;-62
2021/09/01 11:38:08;;;;;;;8.77;6.47;;;22.30;99.90;;;;;;4997130;28;20511;-63
2021/09/01 11:40:42;;;;;;;6.30;5.30;;;22.50;99.90;;;;;;5005802;28;20323;-63
2021/09/01 11:43:09;;;;;;;6.80;6.13;;;22.70;99.90;;;;;;5004035;28;20534;-63
2021/09/01 11:45:44;;;;;;;6.67;5.97;;;22.70;99.90;;;;;;5002881;28;20844;-63
2021/09/01 11:48:09;;;;;;;7.77;5.40;;;22.80;99.90;;;;;;5001494;28;20876;-63
2021/09/01 11:50:44;;;;;;;7.03;5.40;;;22.90;99.90;;;;;;5007103;28;20448;-63
2021/09/01 11:53:17;;;;;;;6.87;6.17;;;23.10;99.90;;;;;;5001172;28;20192;-63
2021/09/01 11:55:43;;;;;;;6.13;5.53;;;23.40;99.90;;;;;;5000804;28;20507;-63
2021/09/01 11:58:16;;;;;;;6.60;4.97;;;23.70;99.90;;;;;;5000911;28;21088;-63
2021/09/01 12:00:44;;;;;;;6.03;5.40;;;24.00;99.90;;;;;;5002133;28;20487;-63
2021/09/01 12:03:11;;;;;;;6.10;5.50;;;24.40;99.90;;;;;;5003289;28;20450;-63
2021/09/01 12:05:40;;;;;;;6.60;6.00;;;25.20;99.90;;;;;;5004315;28;20455;-63
2021/09/01 12:08:18;;;;;;;6.67;6.07;;;26.30;99.90;;;;;;5005215;28;20436;-63
2021/09/01 12:10:46;;;;;;;5.10;4.70;;;27.10;99.90;;;;;;5003336;28;20428;-63
2021/09/01 12:13:12;;;;;;;6.90;5.37;;;28.00;99.90;;;;;;5001265;28;20424;-63
2021/09/01 12:15:37;;;;;;;6.37;5.77;;;28.30;99.90;;;;;;5004414;28;20605;-63
2021/09/01 12:18:05;;;;;;;4.97;4.57;;;28.70;99.90;;;;;;5004553;28;20931;-63
2021/09/01 12:20:36;;;;;;;5.33;4.70;;;29.00;99.90;;;;;;4998903;28;20341;-63
2021/09/01 12:23:16;;;;;;;7.27;5.43;;;28.50;99.90;;;;;;5001666;28;20479;-63
2021/09/01 12:25:41;;;;;;;8.37;5.43;;;27.70;99.90;;;;;;5005893;28;20501;-63
2021/09/01 12:28:14;;;;;;;6.93;4.93;;;27.40;99.90;;;;;;4999851;28;20475;-62
2021/09/01 12:30:43;;;;;;;5.80;5.30;;;27.60;99.90;;;;;;5000198;28;20320;-62
2021/09/01 12:33:17;;;;;;;6.00;5.23;;;27.90;99.90;;;;;;5002406;28;20491;-62
2021/09/01 12:35:43;;;;;;;5.67;4.90;;;27.60;99.90;;;;;;4998387;28;20507;-62